createdAt,value
2019-04-29T00:02:06.109Z,101966.48
2019-04-29T00:04:34.556Z,101971.42
2019-04-29T00:07:03.039Z,101974.34
2019-04-29T00:09:31.979Z,101972.13
2019-04-29T00:12:00.735Z,101976.37
2019-04-29T00:14:29.605Z,101981.56
2019-04-29T00:17:08.339Z,101974.91
2019-04-29T00:19:44.848Z,101974.01
2019-04-29T00:22:13.632Z,101977.71
2019-04-29T00:24:42.187Z,101986.00
2019-04-29T00:27:10.893Z,101982.98
2019-04-29T00:29:39.408Z,101981.95
2019-04-29T00:32:08.652Z,101974.91
2019-04-29T00:34:37.431Z,101978.78
2019-04-29T00:37:16.732Z,101971.50
2019-04-29T00:40:03.204Z,101973.53
2019-04-29T00:43:09.349Z,101958.26
2019-04-29T00:45:38.112Z,101952.84
2019-04-29T00:48:06.624Z,101956.80
2019-04-29T00:50:35.069Z,101949.45
2019-04-29T00:53:03.664Z,101952.54
2019-04-29T00:55:33.031Z,101953.52
2019-04-29T00:58:01.492Z,101949.93
2019-04-29T01:00:34.206Z,101952.63
2019-04-29T01:03:02.651Z,101949.38
2019-04-29T01:05:31.242Z,101953.08
2019-04-29T01:07:59.680Z,101950.12
2019-04-29T01:10:28.126Z,101951.98
2019-04-29T01:12:56.855Z,101956.70
2019-04-29T01:15:25.405Z,101958.73
2019-04-29T01:17:53.900Z,101956.70
2019-04-29T01:20:22.375Z,101949.25
2019-04-29T01:22:50.827Z,101954.36
2019-04-29T01:25:19.259Z,101955.34
2019-04-29T01:27:53.928Z,101950.98
2019-04-29T01:31:27.823Z,101950.33
2019-04-29T01:34:01.173Z,101953.13
2019-04-29T01:36:38.105Z,101950.37
2019-04-29T01:39:07.376Z,101947.15
2019-04-29T01:41:42.635Z,101952.27
2019-04-29T01:44:11.199Z,101948.39
2019-04-29T01:46:40.178Z,101945.02
2019-04-29T01:49:08.662Z,101948.69
2019-04-29T01:51:37.129Z,101940.77
2019-04-29T01:54:05.576Z,101950.75
2019-04-29T01:56:34.040Z,101939.22
2019-04-29T01:59:02.488Z,101941.91
2019-04-29T02:01:31.185Z,101936.23
2019-04-29T02:03:59.695Z,101932.36
2019-04-29T02:06:28.143Z,101934.90
2019-04-29T02:08:57.090Z,101933.08
2019-04-29T02:11:25.608Z,101934.28
2019-04-29T02:13:54.433Z,101932.59
2019-04-29T02:16:23.143Z,101924.45
2019-04-29T02:18:51.621Z,101928.42
2019-04-29T02:21:20.079Z,101920.62
2019-04-29T02:23:57.829Z,101920.31
2019-04-29T02:26:26.320Z,101920.29
2019-04-29T02:28:54.776Z,101916.84
2019-04-29T02:31:38.684Z,101922.25
2019-04-29T02:34:07.416Z,101923.02
2019-04-29T02:36:35.960Z,101921.16
2019-04-29T02:39:34.363Z,101913.22
2019-04-29T02:42:28.388Z,101915.56
2019-04-29T02:45:00.146Z,101909.28
2019-04-29T02:47:28.605Z,101915.97
2019-04-29T02:49:57.064Z,101908.02
2019-04-29T02:52:25.505Z,101902.42
2019-04-29T02:54:57.615Z,101914.48
2019-04-29T02:57:34.674Z,101904.63
2019-04-29T03:00:12.237Z,101905.80
2019-04-29T03:02:46.481Z,101909.83
2019-04-29T03:05:26.664Z,101906.27
2019-04-29T03:07:55.119Z,101906.68
2019-04-29T03:10:23.577Z,101910.59
2019-04-29T03:12:52.052Z,101915.53
2019-04-29T03:15:29.243Z,101912.72
2019-04-29T03:17:57.807Z,101914.80
2019-04-29T03:20:31.387Z,101912.67
2019-04-29T03:23:17.552Z,101914.50
2019-04-29T03:25:46.019Z,101915.37
2019-04-29T03:28:14.494Z,101915.37
2019-04-29T03:30:43.261Z,101910.52
2019-04-29T03:33:11.764Z,101914.02
2019-04-29T03:35:40.468Z,101908.73
2019-04-29T03:38:08.919Z,101907.07
2019-04-29T03:40:37.405Z,101911.16
2019-04-29T03:43:06.115Z,101907.14
2019-04-29T03:45:34.608Z,101911.39
2019-04-29T03:48:03.466Z,101909.70
2019-04-29T03:50:32.043Z,101912.27
2019-04-29T03:53:00.485Z,101911.20
2019-04-29T03:55:38.837Z,101903.89
2019-04-29T03:57:59.260Z,101903.03
2019-04-29T04:00:27.757Z,101903.03
2019-04-29T04:03:21.646Z,101903.32
2019-04-29T04:05:59.651Z,101907.77
2019-04-29T04:08:33.295Z,101905.41
2019-04-29T04:11:02.045Z,101905.03
2019-04-29T04:13:30.581Z,101908.09
2019-04-29T04:15:59.190Z,101908.92
2019-04-29T04:18:29.089Z,101914.97
2019-04-29T04:20:57.594Z,101919.20
2019-04-29T04:23:26.065Z,101917.19
2019-04-29T04:25:54.602Z,101922.92
2019-04-29T04:28:23.060Z,101935.16
2019-04-29T04:30:51.527Z,101930.83
2019-04-29T04:33:20.056Z,101927.81
2019-04-29T04:35:48.535Z,101928.00
2019-04-29T04:38:16.992Z,101927.81
2019-04-29T04:40:55.519Z,101933.89
2019-04-29T04:43:24.001Z,101931.19
2019-04-29T04:45:52.950Z,101927.12
2019-04-29T04:48:21.410Z,101923.52
2019-04-29T04:50:49.931Z,101927.63
2019-04-29T04:53:18.377Z,101929.78
2019-04-29T04:55:48.783Z,101917.77
2019-04-29T04:58:17.292Z,101924.37
2019-04-29T05:00:45.813Z,101925.77
2019-04-29T05:03:14.439Z,101925.41
2019-04-29T05:05:43.022Z,101926.29
2019-04-29T05:08:11.591Z,101920.71
2019-04-29T05:10:40.119Z,101931.53
2019-04-29T05:13:08.619Z,101928.14
2019-04-29T05:15:37.148Z,101926.65
2019-04-29T05:18:05.626Z,101929.87
2019-04-29T05:20:34.098Z,101928.34
2019-04-29T05:23:02.562Z,101926.19
2019-04-29T05:25:31.966Z,101927.25
2019-04-29T05:28:00.583Z,101932.64
2019-04-29T05:30:29.122Z,101922.51
2019-04-29T05:32:57.585Z,101911.71
2019-04-29T05:35:34.831Z,101924.06
2019-04-29T05:38:13.502Z,101924.23
2019-04-29T05:40:47.919Z,101927.12
2019-04-29T05:43:18.882Z,101918.83
2019-04-29T05:45:53.970Z,101918.65
2019-04-29T05:48:22.765Z,101923.94
2019-04-29T05:50:56.854Z,101920.20
2019-04-29T05:53:28.844Z,101916.14
2019-04-29T05:55:57.334Z,101916.33
2019-04-29T05:58:25.848Z,101916.19
2019-04-29T06:01:08.798Z,101909.08
2019-04-29T06:03:37.859Z,101910.78
2019-04-29T06:06:06.712Z,101909.92
2019-04-29T06:08:39.100Z,101912.45
2019-04-29T06:11:05.511Z,101917.69
2019-04-29T06:13:33.982Z,101916.33
2019-04-29T06:16:02.593Z,101917.73
2019-04-29T06:18:31.062Z,101920.33
2019-04-29T06:21:08.886Z,101910.48
2019-04-29T06:23:29.885Z,101919.30
2019-04-29T06:25:58.361Z,101916.90
2019-04-29T06:28:28.208Z,101928.27
2019-04-29T06:30:57.008Z,101925.88
2019-04-29T06:33:29.231Z,101930.48
2019-04-29T06:35:57.174Z,101927.81
2019-04-29T06:38:25.684Z,101924.80
2019-04-29T06:40:54.144Z,101924.98
2019-04-29T06:43:24.661Z,101934.27
2019-04-29T06:45:53.178Z,101939.16
2019-04-29T06:48:21.638Z,101945.29
2019-04-29T06:50:50.123Z,101945.47
2019-04-29T06:53:21.463Z,101955.28
2019-04-29T06:55:49.081Z,101962.78
2019-04-29T06:58:17.724Z,101962.78
2019-04-29T07:00:46.168Z,101966.16
2019-04-29T07:03:14.658Z,101962.77
2019-04-29T07:05:43.129Z,101954.64
2019-04-29T07:08:11.608Z,101946.16
2019-04-29T07:10:40.140Z,101945.17
2019-04-29T07:13:08.712Z,101933.44
2019-04-29T07:15:37.196Z,101938.36
2019-04-29T07:18:05.712Z,101935.69
2019-04-29T07:20:37.190Z,101934.66
2019-04-29T07:23:04.680Z,101933.36
2019-04-29T07:25:33.180Z,101931.01
2019-04-29T07:28:01.679Z,101923.20
2019-04-29T07:30:30.388Z,101927.64
2019-04-29T07:32:58.888Z,101941.84
2019-04-29T07:35:27.456Z,101950.48
2019-04-29T07:37:55.976Z,101947.27
2019-04-29T07:40:24.442Z,101951.65
2019-04-29T07:42:53.043Z,101938.11
2019-04-29T07:45:43.932Z,101943.84
2019-04-29T07:48:06.315Z,101945.55
2019-04-29T07:50:34.144Z,101951.81
2019-04-29T07:53:02.682Z,101959.09
2019-04-29T07:55:32.446Z,101953.13
2019-04-29T07:58:01.147Z,101963.47
2019-04-29T08:00:33.305Z,101964.50
2019-04-29T08:03:03.099Z,101957.73
2019-04-29T08:05:31.571Z,101948.58
2019-04-29T08:08:00.297Z,101941.13
2019-04-29T08:10:29.932Z,101936.38
2019-04-29T08:12:59.393Z,101950.05
2019-04-29T08:15:27.866Z,101951.75
2019-04-29T08:18:06.323Z,101954.12
2019-04-29T08:20:27.199Z,101953.62
2019-04-29T08:22:58.423Z,101953.67
2019-04-29T08:25:27.078Z,101946.41
2019-04-29T08:27:55.645Z,101951.10
2019-04-29T08:30:24.116Z,101945.67
2019-04-29T08:32:52.623Z,101938.86
2019-04-29T08:35:21.142Z,101933.44
2019-04-29T08:37:49.646Z,101936.00
2019-04-29T08:40:18.151Z,101936.69
2019-04-29T08:42:51.966Z,101940.39
2019-04-29T08:45:26.236Z,101940.75
2019-04-29T08:47:54.731Z,101944.15
2019-04-29T08:50:23.265Z,101952.45
2019-04-29T08:52:51.826Z,101956.20
2019-04-29T08:55:20.592Z,101947.08
2019-04-29T08:57:49.038Z,101951.47
2019-04-29T09:00:17.785Z,101953.17
2019-04-29T09:02:49.240Z,101955.03
2019-04-29T09:05:16.961Z,101956.03
2019-04-29T09:07:45.434Z,101960.45
2019-04-29T09:10:13.938Z,101955.72
2019-04-29T09:12:42.706Z,101961.67
2019-04-29T09:15:11.396Z,101953.73
2019-04-29T09:17:39.913Z,101960.50
2019-04-29T09:20:08.646Z,101960.68
2019-04-29T09:22:39.260Z,101963.08
2019-04-29T09:25:21.356Z,101962.23
2019-04-29T09:27:51.201Z,101955.46
2019-04-29T09:30:19.744Z,101965.13
2019-04-29T09:32:48.255Z,101958.89
2019-04-29T09:35:16.953Z,101952.30
2019-04-29T09:37:45.446Z,101957.53
2019-04-29T09:40:16.176Z,101953.83
2019-04-29T09:42:57.115Z,101959.21
2019-04-29T09:45:34.288Z,101965.30
2019-04-29T09:48:02.912Z,101967.88
2019-04-29T09:50:34.288Z,101971.45
2019-04-29T09:53:01.928Z,101959.60
2019-04-29T09:55:30.390Z,101961.45
2019-04-29T09:57:58.886Z,101960.28
2019-04-29T10:00:43.240Z,101962.34
2019-04-29T10:03:33.744Z,101959.13
2019-04-29T10:06:12.437Z,101953.53
2019-04-29T10:08:40.420Z,101947.61
2019-04-29T10:11:08.976Z,101950.14
2019-04-29T10:13:37.430Z,101950.67
2019-04-29T10:16:37.232Z,101949.17
2019-04-29T10:19:20.646Z,101947.98
2019-04-29T10:21:49.158Z,101941.55
2019-04-29T10:24:17.636Z,101944.75
2019-04-29T10:26:46.364Z,101939.17
2019-04-29T10:29:18.594Z,101939.32
2019-04-29T10:31:47.284Z,101938.30
2019-04-29T10:34:16.232Z,101940.86
2019-04-29T10:36:44.711Z,101941.02
2019-04-29T10:39:29.092Z,101935.59
2019-04-29T10:41:58.667Z,101936.29
2019-04-29T10:44:41.268Z,101933.06
2019-04-29T10:47:35.583Z,101931.70
2019-04-29T10:50:10.553Z,101929.49
2019-04-29T10:52:40.246Z,101928.67
2019-04-29T10:55:08.951Z,101931.53
2019-04-29T10:57:37.466Z,101924.86
2019-04-29T11:00:16.905Z,101927.73
2019-04-29T11:02:48.836Z,101920.25
2019-04-29T11:06:00.410Z,101920.36
2019-04-29T11:08:43.262Z,101916.05
2019-04-29T11:11:22.582Z,101917.03
2019-04-29T11:13:48.256Z,101916.21
2019-04-29T11:16:13.405Z,101915.22
2019-04-29T11:18:42.163Z,101916.27
2019-04-29T11:21:10.606Z,101916.23
2019-04-29T11:23:45.142Z,101909.95
2019-04-29T11:26:28.536Z,101894.63
2019-04-29T11:28:58.370Z,101900.35
2019-04-29T11:31:26.839Z,101896.75
2019-04-29T11:34:05.358Z,101896.05
2019-04-29T11:36:34.936Z,101898.92
2019-04-29T11:39:02.890Z,101888.64
2019-04-29T11:41:31.662Z,101882.02
2019-04-29T11:44:00.184Z,101881.98
2019-04-29T11:46:28.872Z,101883.42
2019-04-29T11:48:59.214Z,101886.64
2019-04-29T11:51:57.033Z,101872.20
2019-04-29T11:54:12.721Z,101879.24
2019-04-29T11:56:39.912Z,101873.50
2019-04-29T11:59:29.988Z,101871.08
2019-04-29T12:02:16.251Z,101876.82
2019-04-29T12:04:49.028Z,101868.86
2019-04-29T12:07:21.025Z,101874.09
2019-04-29T12:09:47.847Z,101867.54
2019-04-29T12:12:16.506Z,101863.19
2019-04-29T12:14:54.306Z,101862.72
2019-04-29T12:17:32.599Z,101856.48
2019-04-29T12:20:07.087Z,101862.83
2019-04-29T12:22:47.742Z,101855.67
2019-04-29T12:25:05.816Z,101849.16
2019-04-29T12:27:34.522Z,101849.98
2019-04-29T12:30:04.753Z,101852.37
2019-04-29T12:32:46.100Z,101847.97
2019-04-29T12:35:34.019Z,101847.05
2019-04-29T12:38:16.709Z,101853.75
2019-04-29T12:41:04.223Z,101842.84
2019-04-29T12:43:54.103Z,101840.74
2019-04-29T12:46:25.995Z,101838.83
2019-04-29T12:48:54.731Z,101832.95
2019-04-29T12:51:23.196Z,101829.11
2019-04-29T12:53:51.807Z,101838.69
2019-04-29T12:56:27.629Z,101830.83
2019-04-29T12:58:59.589Z,101828.95
2019-04-29T13:01:50.985Z,101824.42
2019-04-29T13:04:28.117Z,101818.70
2019-04-29T13:07:18.667Z,101812.63
2019-04-29T13:09:47.853Z,101816.87
2019-04-29T13:12:19.338Z,101815.19
2019-04-29T13:15:02.641Z,101809.52
2019-04-29T13:17:32.779Z,101810.64
2019-04-29T13:20:11.172Z,101809.62
2019-04-29T13:22:37.308Z,101803.34
2019-04-29T13:25:06.377Z,101800.19
2019-04-29T13:27:34.876Z,101814.73
2019-04-29T13:30:07.291Z,101810.53
2019-04-29T13:32:35.808Z,101800.32
2019-04-29T13:35:10.487Z,101802.31
2019-04-29T13:37:38.053Z,101799.16
2019-04-29T13:40:07.862Z,101789.52
2019-04-29T13:42:36.347Z,101795.67
2019-04-29T13:45:12.152Z,101796.08
2019-04-29T13:47:53.204Z,101796.40
2019-04-29T13:50:39.434Z,101791.72
2019-04-29T13:53:02.865Z,101792.25
2019-04-29T13:55:47.967Z,101787.47
2019-04-29T13:58:02.138Z,101791.13
2019-04-29T14:00:43.250Z,101783.28
2019-04-29T14:03:19.183Z,101785.07
2019-04-29T14:05:47.646Z,101779.73
2019-04-29T14:08:16.131Z,101782.95
2019-04-29T14:10:46.753Z,101780.87
2019-04-29T14:13:17.674Z,101773.78
2019-04-29T14:15:45.324Z,101774.66
2019-04-29T14:18:14.065Z,101780.28
2019-04-29T14:20:42.499Z,101774.30
2019-04-29T14:23:11.068Z,101774.08
2019-04-29T14:25:39.538Z,101775.58
2019-04-29T14:28:08.042Z,101769.44
2019-04-29T14:30:38.868Z,101773.19
2019-04-29T14:33:06.904Z,101762.08
2019-04-29T14:35:50.420Z,101770.34
2019-04-29T14:38:18.886Z,101766.39
2019-04-29T14:40:47.397Z,101759.97
2019-04-29T14:43:31.392Z,101760.74
2019-04-29T14:46:02.448Z,101760.22
2019-04-29T14:48:42.839Z,101758.23
2019-04-29T14:51:11.855Z,101762.59
2019-04-29T14:53:40.369Z,101761.06
2019-04-29T14:56:08.849Z,101762.98
2019-04-29T14:58:37.405Z,101760.83
2019-04-29T15:01:25.409Z,101764.00
2019-04-29T15:03:56.377Z,101768.00
2019-04-29T15:06:28.453Z,101767.64
2019-04-29T15:08:55.330Z,101764.95
2019-04-29T15:11:31.988Z,101770.38
2019-04-29T15:14:03.042Z,101771.63
2019-04-29T15:16:40.541Z,101778.02
2019-04-29T15:19:27.103Z,101773.00
2019-04-29T15:22:02.507Z,101776.78
2019-04-29T15:24:32.335Z,101780.13
2019-04-29T15:27:01.186Z,101786.45
2019-04-29T15:29:29.724Z,101786.47
2019-04-29T15:31:58.219Z,101774.50
2019-04-29T15:34:26.683Z,101780.70
2019-04-29T15:36:55.227Z,101787.80
2019-04-29T15:39:25.424Z,101787.56
2019-04-29T15:41:54.796Z,101787.70
2019-04-29T15:44:23.578Z,101789.84
2019-04-29T15:46:52.048Z,101791.35
2019-04-29T15:49:24.686Z,101794.42
2019-04-29T15:51:51.073Z,101789.27
2019-04-29T15:54:19.569Z,101791.52
2019-04-29T15:56:48.603Z,101804.20
2019-04-29T15:59:17.203Z,101796.72
2019-04-29T16:01:45.656Z,101804.36
2019-04-29T16:04:20.982Z,101808.77
2019-04-29T16:07:08.768Z,101805.77
2019-04-29T16:09:52.621Z,101821.44
2019-04-29T16:12:25.376Z,101817.44
2019-04-29T16:14:53.918Z,101818.12
2019-04-29T16:17:22.411Z,101815.05
2019-04-29T16:19:51.194Z,101824.30
2019-04-29T16:22:20.437Z,101822.08
2019-04-29T16:24:49.993Z,101822.99
2019-04-29T16:27:18.479Z,101825.86
2019-04-29T16:29:51.694Z,101824.03
2019-04-29T16:32:29.149Z,101819.48
2019-04-29T16:34:57.596Z,101825.30
2019-04-29T16:37:31.863Z,101830.25
2019-04-29T16:39:59.574Z,101835.59
2019-04-29T16:42:35.887Z,101839.63
2019-04-29T16:45:06.174Z,101840.77
2019-04-29T16:47:35.067Z,101838.09
2019-04-29T16:50:04.767Z,101838.50
2019-04-29T16:52:33.414Z,101842.66
2019-04-29T16:55:03.963Z,101836.87
2019-04-29T16:57:32.499Z,101843.85
2019-04-29T17:00:06.348Z,101838.45
2019-04-29T17:02:31.277Z,101835.19
2019-04-29T17:04:59.737Z,101829.84
2019-04-29T17:07:28.289Z,101835.28
2019-04-29T17:10:14.413Z,101844.66
2019-04-29T17:12:47.743Z,101845.97
2019-04-29T17:15:24.619Z,101853.80
2019-04-29T17:17:46.834Z,101852.23
2019-04-29T17:20:15.392Z,101852.59
2019-04-29T17:22:44.821Z,101849.48
2019-04-29T17:25:14.003Z,101858.04
2019-04-29T17:28:11.902Z,101860.16
2019-04-29T17:30:59.221Z,101859.11
2019-04-29T17:33:50.205Z,101858.77
2019-04-29T17:36:23.018Z,101864.23
2019-04-29T17:38:47.169Z,101863.67
2019-04-29T17:41:15.629Z,101864.28
2019-04-29T17:43:58.062Z,101867.41
2019-04-29T17:46:54.733Z,101870.13
2019-04-29T17:49:35.584Z,101875.86
2019-04-29T17:52:06.786Z,101875.62
2019-04-29T17:54:39.690Z,101881.16
2019-04-29T17:57:26.362Z,101876.77
2019-04-29T18:00:00.543Z,101873.81
2019-04-29T18:02:52.558Z,101884.48
2019-04-29T18:05:28.176Z,101880.61
2019-04-29T18:08:05.255Z,101886.75
2019-04-29T18:10:39.982Z,101888.75
2019-04-29T18:13:07.752Z,101891.95
2019-04-29T18:15:47.462Z,101896.98
2019-04-29T18:18:17.016Z,101893.67
2019-04-29T18:21:02.667Z,101892.72
2019-04-29T18:23:44.660Z,101893.05
2019-04-29T18:26:19.133Z,101900.92
2019-04-29T18:28:47.589Z,101893.04
2019-04-29T18:31:16.061Z,101897.15
2019-04-29T18:33:45.129Z,101896.16
2019-04-29T18:36:21.814Z,101906.81
2019-04-29T18:38:48.701Z,101904.27
2019-04-29T18:41:16.426Z,101905.48
2019-04-29T18:43:45.210Z,101904.23
2019-04-29T18:46:14.839Z,101905.52
2019-04-29T18:48:45.602Z,101911.78
2019-04-29T18:51:15.392Z,101911.05
2019-04-29T18:53:43.969Z,101913.55
2019-04-29T18:56:12.444Z,101914.45
2019-04-29T18:58:42.216Z,101920.50
2019-04-29T19:01:11.333Z,101917.17
2019-04-29T19:03:56.029Z,101916.23
2019-04-29T19:06:24.727Z,101920.68
2019-04-29T19:08:54.963Z,101920.30
2019-04-29T19:11:31.958Z,101918.48
2019-04-29T19:13:53.844Z,101915.61
2019-04-29T19:16:23.281Z,101918.91
2019-04-29T19:18:56.488Z,101919.00
2019-04-29T19:21:23.538Z,101917.86
2019-04-29T19:23:56.543Z,101923.15
2019-04-29T19:26:25.872Z,101922.69
2019-04-29T19:28:53.329Z,101925.27
2019-04-29T19:31:21.808Z,101930.76
2019-04-29T19:36:21.671Z,101929.14
2019-04-29T19:38:48.655Z,101935.02
2019-04-29T19:41:18.182Z,101935.02
2019-04-29T19:43:50.120Z,101928.30
2019-04-29T19:46:24.284Z,101930.86
2019-04-29T19:48:47.181Z,101932.38
2019-04-29T19:51:18.359Z,101933.44
2019-04-29T19:53:49.420Z,101929.78
2019-04-29T19:56:20.998Z,101934.87
2019-04-29T19:58:46.836Z,101939.45
2019-04-29T20:01:26.478Z,101941.35
2019-04-29T20:03:58.702Z,101943.13
2019-04-29T20:06:30.327Z,101948.61
2019-04-29T20:09:01.441Z,101952.23
2019-04-29T20:11:32.732Z,101952.25
2019-04-29T20:14:04.378Z,101948.02
2019-04-29T20:16:56.221Z,101946.01
2019-04-29T20:19:28.383Z,101954.18
2019-04-29T20:22:03.069Z,101956.23
2019-04-29T20:24:27.414Z,101949.09
2019-04-29T20:26:56.209Z,101948.03
2019-04-29T20:29:26.301Z,101945.48
2019-04-29T20:31:56.594Z,101944.83
2019-04-29T20:34:28.075Z,101950.30
2019-04-29T20:36:55.826Z,101955.57
2019-04-29T20:39:26.125Z,101960.33
2019-04-29T20:41:56.017Z,101952.19
2019-04-29T20:44:24.890Z,101954.92
2019-04-29T20:47:14.221Z,101953.91
2019-04-29T20:49:23.846Z,101955.81
2019-04-29T20:51:57.104Z,101958.87
2019-04-29T20:54:27.483Z,101960.38
2019-04-29T20:57:03.038Z,101953.59
2019-04-29T20:59:26.568Z,101951.92
2019-04-29T21:02:11.244Z,101956.67
2019-04-29T21:04:31.886Z,101959.22
2019-04-29T21:07:02.448Z,101958.16
2019-04-29T21:09:30.348Z,101960.89
2019-04-29T21:12:20.320Z,101957.50
2019-04-29T21:14:50.801Z,101950.34
2019-04-29T21:17:28.741Z,101952.04
2019-04-29T21:19:49.493Z,101953.39
2019-04-29T21:22:22.355Z,101953.22
2019-04-29T21:24:49.425Z,101954.94
2019-04-29T21:27:22.563Z,101947.15
2019-04-29T21:29:49.785Z,101943.05
2019-04-29T21:32:18.376Z,101949.67
2019-04-29T21:34:56.775Z,101949.00
2019-04-29T21:37:39.940Z,101948.50
2019-04-29T21:40:18.557Z,101954.26
2019-04-29T21:42:48.374Z,101957.30
2019-04-29T21:45:17.833Z,101956.96
2019-04-29T21:47:52.922Z,101955.93
2019-04-29T21:50:16.496Z,101957.12
2019-04-29T21:52:46.835Z,101956.59
2019-04-29T21:55:16.160Z,101966.44
2019-04-29T21:57:44.873Z,101963.38
2019-04-29T22:00:15.642Z,101972.22
2019-04-29T22:02:47.879Z,101968.47
2019-04-29T22:05:18.075Z,101976.97
2019-04-29T22:07:47.331Z,101970.86
2019-04-29T22:10:15.237Z,101971.69
2019-04-29T22:12:43.828Z,101970.66
2019-04-29T22:15:15.931Z,101978.08
2019-04-29T22:17:54.406Z,101971.66
2019-04-29T22:20:15.943Z,101969.09
2019-04-29T22:22:45.284Z,101974.38
2019-04-29T22:25:15.736Z,101982.64
2019-04-29T22:27:45.108Z,101975.51
2019-04-29T22:30:16.899Z,101985.36
2019-04-29T22:32:46.880Z,101980.26
2019-04-29T22:35:16.545Z,101979.61
2019-04-29T22:37:45.484Z,101979.47
2019-04-29T22:40:17.007Z,101973.70
2019-04-29T22:43:04.711Z,101978.76
2019-04-29T22:45:29.505Z,101981.61
2019-04-29T22:48:11.972Z,101973.16
2019-04-29T22:50:28.383Z,101977.22
2019-04-29T22:52:57.223Z,101984.50
2019-04-29T22:55:25.686Z,101989.06
2019-04-29T22:57:55.453Z,101984.64
2019-04-29T23:00:32.546Z,101984.00
2019-04-29T23:02:57.701Z,101978.03
2019-04-29T23:05:27.995Z,101972.94
2019-04-29T23:08:00.160Z,101978.22
2019-04-29T23:10:28.057Z,101976.86
2019-04-29T23:12:57.573Z,101967.73
2019-04-29T23:15:26.150Z,101966.20
2019-04-29T23:17:54.815Z,101965.34
2019-04-29T23:20:40.904Z,101960.24
2019-04-29T23:23:15.636Z,101956.85
2019-04-29T23:25:49.569Z,101958.34
2019-04-29T23:28:18.037Z,101954.10
2019-04-29T23:30:47.879Z,101950.03
2019-04-29T23:33:22.736Z,101955.77
2019-04-29T23:35:47.366Z,101954.77
2019-04-29T23:38:15.934Z,101954.95
2019-04-29T23:40:44.386Z,101952.37
2019-04-29T23:43:12.958Z,101952.37
2019-04-29T23:45:41.572Z,101948.31
2019-04-29T23:48:10.034Z,101950.16
2019-04-29T23:50:38.478Z,101945.37
2019-04-29T23:53:07.176Z,101946.36
2019-04-29T23:55:35.803Z,101945.17
2019-04-29T23:58:23.520Z,101941.75
